sensor_id;sensor_type;location;lat;lon;timestamp;pressure;altitude;pressure_sealevel;temperature;humidity
10145;BME280;5113;41.822;23.564;2022-09-29T00:01:26;-11259.06;;;11.74;100.00
10145;BME280;5113;41.822;23.564;2022-09-29T00:04:33;-11256.81;;;11.66;100.00
10145;BME280;5113;41.822;23.564;2022-09-29T00:07:39;-11258.38;;;11.71;100.00
10145;BME280;5113;41.822;23.564;2022-09-29T00:10:46;-11246.41;;;11.28;100.00
10145;BME280;5113;41.822;23.564;2022-09-29T00:13:53;-11234.88;;;10.86;100.00
10145;BME280;5113;41.822;23.564;2022-09-29T00:16:59;-11222.06;;;10.40;100.00
10145;BME280;5113;41.822;23.564;2022-09-29T00:20:06;-11212.78;;;10.07;100.00
10145;BME280;5113;41.822;23.564;2022-09-29T00:23:13;-11217.84;;;10.25;100.00
10145;BME280;5113;41.822;23.564;2022-09-29T00:26:21;-11223.06;;;10.44;100.00
10145;BME280;5113;41.822;23.564;2022-09-29T00:29:29;-11238.09;;;10.98;100.00
10145;BME280;5113;41.822;23.564;2022-09-29T00:32:35;-11235.44;;;10.88;100.00
10145;BME280;5113;41.822;23.564;2022-09-29T00:35:41;-11236.72;;;10.93;100.00
10145;BME280;5113;41.822;23.564;2022-09-29T00:38:48;-11240.63;;;11.07;100.00
10145;BME280;5113;41.822;23.564;2022-09-29T00:41:56;-11247.41;;;11.32;100.00
10145;BME280;5113;41.822;23.564;2022-09-29T00:45:15;-11253.88;;;11.55;100.00
10145;BME280;5113;41.822;23.564;2022-09-29T00:48:29;-11243.03;;;11.16;100.00
10145;BME280;5113;41.822;23.564;2022-09-29T00:51:39;-11241.19;;;11.09;100.00
10145;BME280;5113;41.822;23.564;2022-09-29T00:54:51;-11238.25;;;10.99;100.00
10145;BME280;5113;41.822;23.564;2022-09-29T00:58:01;-11208.84;;;9.92;100.00
10145;BME280;5113;41.822;23.564;2022-09-29T01:01:11;-11216.72;;;10.21;100.00
10145;BME280;5113;41.822;23.564;2022-09-29T01:04:18;-11229.37;;;10.67;100.00
10145;BME280;5113;41.822;23.564;2022-09-29T01:07:26;-11224.88;;;10.50;100.00
10145;BME280;5113;41.822;23.564;2022-09-29T01:10:33;-11242.31;;;11.13;100.00
10145;BME280;5113;41.822;23.564;2022-09-29T01:13:40;-11236.16;;;10.91;100.00
10145;BME280;5113;41.822;23.564;2022-09-29T01:16:47;-11211.38;;;10.02;100.00
10145;BME280;5113;41.822;23.564;2022-09-29T01:20:03;-11207.31;;;9.87;100.00
10145;BME280;5113;41.822;23.564;2022-09-29T01:30:42;-11217.44;;;10.23;100.00
10145;BME280;5113;41.822;23.564;2022-09-29T01:33:55;-11220.66;;;10.35;100.00
10145;BME280;5113;41.822;23.564;2022-09-29T01:37:11;-11227.41;;;10.59;100.00
10145;BME280;5113;41.822;23.564;2022-09-29T01:40:25;-11216.72;;;10.21;100.00
10145;BME280;5113;41.822;23.564;2022-09-29T01:43:38;-11223.06;;;10.44;100.00
10145;BME280;5113;41.822;23.564;2022-09-29T01:46:51;-11225.31;;;10.52;100.00
10145;BME280;5113;41.822;23.564;2022-09-29T01:50:01;-11227.41;;;10.59;100.00
10145;BME280;5113;41.822;23.564;2022-09-29T01:53:11;-11207.44;;;9.87;100.00
10145;BME280;5113;41.822;23.564;2022-09-29T01:56:23;-11205.75;;;9.81;100.00
10145;BME280;5113;41.822;23.564;2022-09-29T01:59:42;-11209.41;;;9.94;100.00
10145;BME280;5113;41.822;23.564;2022-09-29T02:02:54;-11230.50;;;10.71;100.00
10145;BME280;5113;41.822;23.564;2022-09-29T02:06:03;-11230.50;;;10.71;100.00
10145;BME280;5113;41.822;23.564;2022-09-29T02:09:18;-11221.09;;;10.37;100.00
10145;BME280;5113;41.822;23.564;2022-09-29T02:12:26;-11207.72;;;9.88;100.00
10145;BME280;5113;41.822;23.564;2022-09-29T02:15:37;-11189.88;;;9.24;100.00
10145;BME280;5113;41.822;23.564;2022-09-29T02:18:49;-11193.38;;;9.37;100.00
10145;BME280;5113;41.822;23.564;2022-09-29T02:22:02;-11202.53;;;9.70;100.00
10145;BME280;5113;41.822;23.564;2022-09-29T02:25:10;-11196.06;;;9.46;100.00
10145;BME280;5113;41.822;23.564;2022-09-29T02:28:18;-11199.16;;;9.57;100.00
10145;BME280;5113;41.822;23.564;2022-09-29T02:31:24;-11201.13;;;9.65;100.00
10145;BME280;5113;41.822;23.564;2022-09-29T02:34:35;-11212.22;;;10.05;100.00
10145;BME280;5113;41.822;23.564;2022-09-29T02:37:56;-11177.06;;;8.78;100.00
10145;BME280;5113;41.822;23.564;2022-09-29T02:41:10;-11189.31;;;9.22;100.00
10145;BME280;5113;41.822;23.564;2022-09-29T02:44:39;-11203.50;;;9.73;100.00
10145;BME280;5113;41.822;23.564;2022-09-29T02:48:07;-11187.75;;;9.16;100.00
10145;BME280;5113;41.822;23.564;2022-09-29T02:51:21;-11207.03;;;9.86;100.00
10145;BME280;5113;41.822;23.564;2022-09-29T02:54:46;-11194.50;;;9.41;100.00
10145;BME280;5113;41.822;23.564;2022-09-29T02:57:58;-11208.56;;;9.91;100.00
10145;BME280;5113;41.822;23.564;2022-09-29T03:01:07;-11196.19;;;9.47;100.00
10145;BME280;5113;41.822;23.564;2022-09-29T03:04:14;-11187.19;;;9.14;100.00
10145;BME280;5113;41.822;23.564;2022-09-29T03:07:21;-11170.06;;;8.52;100.00
10145;BME280;5113;41.822;23.564;2022-09-29T03:10:28;-11190.84;;;9.27;100.00
10145;BME280;5113;41.822;23.564;2022-09-29T03:13:34;-11206.03;;;9.82;100.00
10145;BME280;5113;41.822;23.564;2022-09-29T03:16:41;-11202.09;;;9.68;100.00
10145;BME280;5113;41.822;23.564;2022-09-29T03:19:47;-11197.03;;;9.50;100.00
10145;BME280;5113;41.822;23.564;2022-09-29T03:22:56;-11189.44;;;9.22;100.00
10145;BME280;5113;41.822;23.564;2022-09-29T03:26:02;-11174.25;;;8.68;100.00
10145;BME280;5113;41.822;23.564;2022-09-29T03:29:08;-11189.72;;;9.23;100.00
10145;BME280;5113;41.822;23.564;2022-09-29T03:32:15;-11183.25;;;9.00;100.00
10145;BME280;5113;41.822;23.564;2022-09-29T03:35:21;-11165.41;;;8.36;100.00
10145;BME280;5113;41.822;23.564;2022-09-29T03:38:28;-11191.41;;;9.30;100.00
10145;BME280;5113;41.822;23.564;2022-09-29T03:41:34;-11193.09;;;9.36;100.00
10145;BME280;5113;41.822;23.564;2022-09-29T03:44:41;-11185.66;;;9.09;100.00
10145;BME280;5113;41.822;23.564;2022-09-29T03:47:47;-11194.78;;;9.42;100.00
10145;BME280;5113;41.822;23.564;2022-09-29T03:50:53;-11181.44;;;8.93;100.00
10145;BME280;5113;41.822;23.564;2022-09-29T03:54:01;-11203.78;;;9.74;100.00
10145;BME280;5113;41.822;23.564;2022-09-29T03:57:07;-11206.59;;;9.84;100.00
10145;BME280;5113;41.822;23.564;2022-09-29T04:00:14;-11207.88;;;9.89;100.00
10145;BME280;5113;41.822;23.564;2022-09-29T04:03:20;-11199.84;;;9.60;100.00
10145;BME280;5113;41.822;23.564;2022-09-29T04:06:27;-11209.97;;;9.97;100.00
10145;BME280;5113;41.822;23.564;2022-09-29T04:09:34;-11193.53;;;9.37;100.00
10145;BME280;5113;41.822;23.564;2022-09-29T04:12:41;-11184.94;;;9.06;100.00
10145;BME280;5113;41.822;23.564;2022-09-29T04:15:47;-11204.63;;;9.77;100.00
10145;BME280;5113;41.822;23.564;2022-09-29T04:18:54;-11210.81;;;10.00;100.00
10145;BME280;5113;41.822;23.564;2022-09-29T04:22:00;-11211.81;;;10.03;100.00
10145;BME280;5113;41.822;23.564;2022-09-29T04:25:08;-11212.09;;;10.04;100.00
10145;BME280;5113;41.822;23.564;2022-09-29T04:28:14;-11205.75;;;9.81;100.00
10145;BME280;5113;41.822;23.564;2022-09-29T04:31:21;-11186.91;;;9.13;100.00
10145;BME280;5113;41.822;23.564;2022-09-29T04:34:27;-11178.19;;;8.82;100.00
10145;BME280;5113;41.822;23.564;2022-09-29T04:37:33;-11172.59;;;8.62;100.00
10145;BME280;5113;41.822;23.564;2022-09-29T04:40:41;-11192.53;;;9.34;100.00
10145;BME280;5113;41.822;23.564;2022-09-29T04:43:47;-11185.22;;;9.07;100.00
10145;BME280;5113;41.822;23.564;2022-09-29T04:46:53;-11187.47;;;9.15;100.00
10145;BME280;5113;41.822;23.564;2022-09-29T04:50:00;-11182.84;;;8.99;100.00
10145;BME280;5113;41.822;23.564;2022-09-29T04:53:06;-11198.72;;;9.56;100.00
10145;BME280;5113;41.822;23.564;2022-09-29T04:56:31;-11178.91;;;8.84;100.00
10145;BME280;5113;41.822;23.564;2022-09-29T04:59:37;-11209.97;;;9.97;100.00
10145;BME280;5113;41.822;23.564;2022-09-29T05:02:44;-11210.81;;;10.00;100.00
10145;BME280;5113;41.822;23.564;2022-09-29T05:05:54;-11202.25;;;9.69;100.00
10145;BME280;5113;41.822;23.564;2022-09-29T05:09:00;-11208.28;;;9.90;100.00
10145;BME280;5113;41.822;23.564;2022-09-29T05:12:07;-11195.22;;;9.43;100.00
10145;BME280;5113;41.822;23.564;2022-09-29T05:15:14;-11210.25;;;9.98;100.00
10145;BME280;5113;41.822;23.564;2022-09-29T05:18:23;-11210.53;;;9.99;100.00
10145;BME280;5113;41.822;23.564;2022-09-29T05:21:30;-11215.59;;;10.17;100.00
10145;BME280;5113;41.822;23.564;2022-09-29T05:24:36;-11226.00;;;10.54;100.00
10145;BME280;5113;41.822;23.564;2022-09-29T05:27:44;-11209.41;;;9.94;100.00
10145;BME280;5113;41.822;23.564;2022-09-29T05:30:50;-11204.06;;;9.75;100.00
10145;BME280;5113;41.822;23.564;2022-09-29T05:33:57;-11206.03;;;9.82;100.00
10145;BME280;5113;41.822;23.564;2022-09-29T05:37:03;-11202.81;;;9.71;100.00
10145;BME280;5113;41.822;23.564;2022-09-29T05:40:10;-11220.38;;;10.34;100.00
10145;BME280;5113;41.822;23.564;2022-09-29T05:43:18;-11226.84;;;10.57;100.00
10145;BME280;5113;41.822;23.564;2022-09-29T05:46:25;-11233.03;;;10.80;100.00
10145;BME280;5113;41.822;23.564;2022-09-29T05:49:31;-11236.84;;;10.94;100.00
10145;BME280;5113;41.822;23.564;2022-09-29T05:52:40;-11223.47;;;10.45;100.00
10145;BME280;5113;41.822;23.564;2022-09-29T05:55:46;-11225.72;;;10.53;100.00
10145;BME280;5113;41.822;23.564;2022-09-29T05:58:54;-11213.63;;;10.10;100.00
10145;BME280;5113;41.822;23.564;2022-09-29T06:02:00;-11228.53;;;10.64;100.00
10145;BME280;5113;41.822;23.564;2022-09-29T06:05:06;-11214.63;;;10.13;100.00
10145;BME280;5113;41.822;23.564;2022-09-29T06:08:13;-11215.19;;;10.15;100.00
10145;BME280;5113;41.822;23.564;2022-09-29T06:11:21;-11231.34;;;10.74;100.00
10145;BME280;5113;41.822;23.564;2022-09-29T06:14:30;-11250.50;;;11.43;100.00
10145;BME280;5113;41.822;23.564;2022-09-29T06:17:36;-11225.44;;;10.52;100.00
10145;BME280;5113;41.822;23.564;2022-09-29T06:20:42;-11265.13;;;11.96;100.00
10145;BME280;5113;41.822;23.564;2022-09-29T06:23:50;-11264.00;;;11.92;100.00
10145;BME280;5113;41.822;23.564;2022-09-29T06:26:56;-11279.19;;;12.46;100.00
10145;BME280;5113;41.822;23.564;2022-09-29T06:30:05;-11271.75;;;12.19;100.00
10145;BME280;5113;41.822;23.564;2022-09-29T06:33:12;-11268.09;;;12.06;100.00
10145;BME280;5113;41.822;23.564;2022-09-29T06:36:21;-11278.78;;;12.45;100.00
10145;BME280;5113;41.822;23.564;2022-09-29T09:33:57;-11549.53;;;22.20;68.68
10145;BME280;5113;41.822;23.564;2022-09-29T09:37:13;-11570.13;;;22.94;69.40
10145;BME280;5113;41.822;23.564;2022-09-29T09:40:24;-11565.63;;;22.78;68.23
10145;BME280;5113;41.822;23.564;2022-09-29T09:43:36;-11581.44;;;23.35;67.43
10145;BME280;5113;41.822;23.564;2022-09-29T09:46:47;-11534.00;;;21.64;67.93
10145;BME280;5113;41.822;23.564;2022-09-29T09:53:11;-11562.66;;;22.67;66.02
10145;BME280;5113;41.822;23.564;2022-09-29T09:56:23;-11550.09;;;22.22;72.52
10145;BME280;5113;41.822;23.564;2022-09-29T09:59:48;-11543.19;;;21.97;74.06
10145;BME280;5113;41.822;23.564;2022-09-29T10:03:03;-11551.22;;;22.26;69.93
10145;BME280;5113;41.822;23.564;2022-09-29T10:06:10;-11596.66;;;23.90;67.47
10145;BME280;5113;41.822;23.564;2022-09-29T10:09:18;-11593.72;;;23.79;64.08
10145;BME280;5113;41.822;23.564;2022-09-29T10:12:24;-11583.13;;;23.41;67.33
10145;BME280;5113;41.822;23.564;2022-09-29T10:15:34;-11607.41;;;24.28;61.48
10145;BME280;5113;41.822;23.564;2022-09-29T10:18:44;-11585.81;;;23.51;63.31
10145;BME280;5113;41.822;23.564;2022-09-29T10:21:53;-11579.31;;;23.27;67.04
10145;BME280;5113;41.822;23.564;2022-09-29T10:25:18;-11560.81;;;22.61;68.11
10145;BME280;5113;41.822;23.564;2022-09-29T10:28:25;-11559.81;;;22.57;66.72
10145;BME280;5113;41.822;23.564;2022-09-29T10:31:34;-11603.16;;;24.13;63.12
10145;BME280;5113;41.822;23.564;2022-09-29T10:34:43;-11556.03;;;22.44;65.13
10145;BME280;5113;41.822;23.564;2022-09-29T10:38:00;-11549.81;;;22.21;67.53
10145;BME280;5113;41.822;23.564;2022-09-29T10:41:07;-11542.34;;;21.94;68.61
10145;BME280;5113;41.822;23.564;2022-09-29T10:44:19;-11543.88;;;22.00;68.25
10145;BME280;5113;41.822;23.564;2022-09-29T10:47:26;-11526.13;;;21.36;71.80
10145;BME280;5113;41.822;23.564;2022-09-29T10:50:35;-11515.09;;;20.96;71.71
10145;BME280;5113;41.822;23.564;2022-09-29T10:53:43;-11513.41;;;20.90;72.83
10145;BME280;5113;41.822;23.564;2022-09-29T10:56:49;-11517.06;;;21.03;73.96
10145;BME280;5113;41.822;23.564;2022-09-29T10:59:56;-11519.06;;;21.10;74.32
10145;BME280;5113;41.822;23.564;2022-09-29T11:03:07;-11514.81;;;20.95;75.79
10145;BME280;5113;41.822;23.564;2022-09-29T11:06:24;-11514.13;;;20.93;77.19
10145;BME280;5113;41.822;23.564;2022-09-29T11:09:38;-11513.69;;;20.91;76.36
10145;BME280;5113;41.822;23.564;2022-09-29T11:12:45;-11529.06;;;21.47;73.21
10145;BME280;5113;41.822;23.564;2022-09-29T11:16:02;-11520.59;;;21.16;73.76
10145;BME280;5113;41.822;23.564;2022-09-29T11:19:11;-11514.25;;;20.93;74.72
10145;BME280;5113;41.822;23.564;2022-09-29T11:26:06;-11513.13;;;20.89;72.90
10145;BME280;5113;41.822;23.564;2022-09-29T11:29:24;-11517.50;;;21.05;69.52
10145;BME280;5113;41.822;23.564;2022-09-29T11:32:42;-11528.38;;;21.44;68.34
10145;BME280;5113;41.822;23.564;2022-09-29T11:35:57;-11521.31;;;21.19;69.58
10145;BME280;5113;41.822;23.564;2022-09-29T11:39:22;-11527.81;;;21.42;68.45
10145;BME280;5113;41.822;23.564;2022-09-29T11:46:10;-11531.59;;;21.56;68.71
10145;BME280;5113;41.822;23.564;2022-09-29T11:49:43;-11537.41;;;21.77;68.05
10145;BME280;5113;41.822;23.564;2022-09-29T11:53:13;-11530.34;;;21.51;69.49
10145;BME280;5113;41.822;23.564;2022-09-29T11:56:29;-11525.41;;;21.33;66.00
10145;BME280;5113;41.822;23.564;2022-09-29T12:00:04;-11541.34;;;21.91;64.91
10145;BME280;5113;41.822;23.564;2022-09-29T12:03:22;-11537.41;;;21.77;66.40
10145;BME280;5113;41.822;23.564;2022-09-29T12:06:51;-11531.19;;;21.54;63.17
10145;BME280;5113;41.822;23.564;2022-09-29T12:10:27;-11544.16;;;22.01;62.45
10145;BME280;5113;41.822;23.564;2022-09-29T12:13:43;-11550.09;;;22.22;60.53
10145;BME280;5113;41.822;23.564;2022-09-29T12:16:56;-11546.72;;;22.10;62.02
10145;BME280;5113;41.822;23.564;2022-09-29T12:20:07;-11549.09;;;22.19;63.35
10145;BME280;5113;41.822;23.564;2022-09-29T12:23:20;-11558.28;;;22.52;61.15
10145;BME280;5113;41.822;23.564;2022-09-29T12:26:29;-11553.63;;;22.35;61.13
10145;BME280;5113;41.822;23.564;2022-09-29T12:29:38;-11552.63;;;22.31;61.42
10145;BME280;5113;41.822;23.564;2022-09-29T12:32:51;-11555.19;;;22.40;66.38
10145;BME280;5113;41.822;23.564;2022-09-29T12:36:08;-11551.94;;;22.29;61.48
10145;BME280;5113;41.822;23.564;2022-09-29T12:39:38;-11560.13;;;22.58;63.75
10145;BME280;5113;41.822;23.564;2022-09-29T12:43:00;-11550.66;;;22.24;62.28
10145;BME280;5113;41.822;23.564;2022-09-29T12:46:14;-11543.03;;;21.97;61.52
10145;BME280;5113;41.822;23.564;2022-09-29T12:49:29;-11548.69;;;22.17;56.89
10145;BME280;5113;41.822;23.564;2022-09-29T12:52:45;-11549.69;;;22.21;61.52
10145;BME280;5113;41.822;23.564;2022-09-29T12:55:58;-11540.50;;;21.88;62.29
10145;BME280;5113;41.822;23.564;2022-09-29T12:59:10;-11537.41;;;21.77;61.16
10145;BME280;5113;41.822;23.564;2022-09-29T13:02:33;-11539.22;;;21.83;64.97
10145;BME280;5113;41.822;23.564;2022-09-29T13:05:58;-11537.13;;;21.75;67.41
10145;BME280;5113;41.822;23.564;2022-09-29T13:09:23;-11534.28;;;21.65;63.97
10145;BME280;5113;41.822;23.564;2022-09-29T13:12:58;-11535.00;;;21.68;64.65
10145;BME280;5113;41.822;23.564;2022-09-29T13:16:21;-11535.28;;;21.69;70.93
10145;BME280;5113;41.822;23.564;2022-09-29T13:19:49;-11532.88;;;21.60;71.73
10145;BME280;5113;41.822;23.564;2022-09-29T13:23:19;-11533.44;;;21.62;67.26
10145;BME280;5113;41.822;23.564;2022-09-29T13:26:35;-11530.91;;;21.53;68.88
10145;BME280;5113;41.822;23.564;2022-09-29T13:29:47;-11530.19;;;21.51;73.38
10145;BME280;5113;41.822;23.564;2022-09-29T13:33:00;-11531.47;;;21.55;75.31
10145;BME280;5113;41.822;23.564;2022-09-29T13:36:07;-11533.16;;;21.61;74.59
10145;BME280;5113;41.822;23.564;2022-09-29T13:39:22;-11529.63;;;21.49;74.23
10145;BME280;5113;41.822;23.564;2022-09-29T13:42:42;-11528.38;;;21.44;75.01
10145;BME280;5113;41.822;23.564;2022-09-29T13:45:49;-11517.78;;;21.06;79.15
10145;BME280;5113;41.822;23.564;2022-09-29T13:49:02;-11519.47;;;21.12;79.11
10145;BME280;5113;41.822;23.564;2022-09-29T13:52:29;-11524.41;;;21.30;77.30
10145;BME280;5113;41.822;23.564;2022-09-29T13:55:53;-11520.19;;;21.15;77.50
10145;BME280;5113;41.822;23.564;2022-09-29T13:59:00;-11514.97;;;20.96;78.30
10145;BME280;5113;41.822;23.564;2022-09-29T14:02:27;-11521.44;;;21.19;68.01
10145;BME280;5113;41.822;23.564;2022-09-29T14:05:50;-11519.06;;;21.10;72.74
10145;BME280;5113;41.822;23.564;2022-09-29T14:09:00;-11510.03;;;20.78;73.80
10145;BME280;5113;41.822;23.564;2022-09-29T14:12:16;-11511.16;;;20.82;72.26
10145;BME280;5113;41.822;23.564;2022-09-29T14:15:25;-11507.06;;;20.67;71.14
10145;BME280;5113;41.822;23.564;2022-09-29T14:18:37;-11504.53;;;20.58;76.35
10145;BME280;5113;41.822;23.564;2022-09-29T14:21:56;-11509.47;;;20.76;73.99
10145;BME280;5113;41.822;23.564;2022-09-29T14:25:31;-11514.53;;;20.94;73.62
10145;BME280;5113;41.822;23.564;2022-09-29T14:28:41;-11511.00;;;20.82;71.93
10145;BME280;5113;41.822;23.564;2022-09-29T14:31:50;-11514.13;;;20.93;69.64
10145;BME280;5113;41.822;23.564;2022-09-29T14:34:58;-11506.06;;;20.64;72.74
10145;BME280;5113;41.822;23.564;2022-09-29T14:38:10;-11511.56;;;20.84;69.27
10145;BME280;5113;41.822;23.564;2022-09-29T14:41:23;-11512.13;;;20.86;70.75
10145;BME280;5113;41.822;23.564;2022-09-29T14:44:34;-11512.69;;;20.88;74.11
10145;BME280;5113;41.822;23.564;2022-09-29T14:47:59;-11504.38;;;20.58;76.01
10145;BME280;5113;41.822;23.564;2022-09-29T14:51:29;-11502.97;;;20.53;76.71
10145;BME280;5113;41.822;23.564;2022-09-29T14:55:03;-11504.38;;;20.58;77.49
10145;BME280;5113;41.822;23.564;2022-09-29T14:58:25;-11491.69;;;20.12;84.48
10145;BME280;5113;41.822;23.564;2022-09-29T15:01:53;-11495.63;;;20.26;80.26
10145;BME280;5113;41.822;23.564;2022-09-29T15:05:11;-11482.09;;;19.77;84.20
10145;BME280;5113;41.822;23.564;2022-09-29T15:08:25;-11485.75;;;19.91;80.80
10145;BME280;5113;41.822;23.564;2022-09-29T15:11:34;-11475.91;;;19.55;86.52
10145;BME280;5113;41.822;23.564;2022-09-29T15:14:42;-11470.81;;;19.37;89.59
10145;BME280;5113;41.822;23.564;2022-09-29T15:17:53;-11461.22;;;19.02;88.27
10145;BME280;5113;41.822;23.564;2022-09-29T15:21:08;-11469.13;;;19.31;82.11
10145;BME280;5113;41.822;23.564;2022-09-29T15:24:27;-11466.31;;;19.21;85.28
10145;BME280;5113;41.822;23.564;2022-09-29T15:27:38;-11471.66;;;19.40;84.14
10145;BME280;5113;41.822;23.564;2022-09-29T15:30:48;-11465.44;;;19.18;88.05
10145;BME280;5113;41.822;23.564;2022-09-29T15:33:57;-11456.16;;;18.84;93.80
10145;BME280;5113;41.822;23.564;2022-09-29T15:37:04;-11454.88;;;18.79;96.27
10145;BME280;5113;41.822;23.564;2022-09-29T15:40:13;-11451.63;;;18.68;96.99
10145;BME280;5113;41.822;23.564;2022-09-29T15:43:21;-11451.06;;;18.66;99.08
10145;BME280;5113;41.822;23.564;2022-09-29T15:46:34;-11453.91;;;18.76;96.97
10145;BME280;5113;41.822;23.564;2022-09-29T15:49:49;-11446.56;;;18.49;100.00
10145;BME280;5113;41.822;23.564;2022-09-29T15:52:56;-11447.97;;;18.55;99.90
10145;BME280;5113;41.822;23.564;2022-09-29T15:56:04;-11453.75;;;18.75;98.18
10145;BME280;5113;41.822;23.564;2022-09-29T15:59:17;-11456.28;;;18.85;94.09
10145;BME280;5113;41.822;23.564;2022-09-29T16:02:27;-11462.06;;;19.05;84.83
10145;BME280;5113;41.822;23.564;2022-09-29T16:05:37;-11438.94;;;18.22;98.96
10145;BME280;5113;41.822;23.564;2022-09-29T16:08:52;-11444.59;;;18.42;98.59
10145;BME280;5113;41.822;23.564;2022-09-29T16:12:05;-11436.41;;;18.13;100.00
10145;BME280;5113;41.822;23.564;2022-09-29T16:15:16;-11434.28;;;18.05;100.00
10145;BME280;5113;41.822;23.564;2022-09-29T16:18:27;-11422.31;;;17.62;100.00
10145;BME280;5113;41.822;23.564;2022-09-29T16:21:37;-11415.25;;;17.37;100.00
10145;BME280;5113;41.822;23.564;2022-09-29T16:24:52;-11409.91;;;17.17;100.00
10145;BME280;5113;41.822;23.564;2022-09-29T16:27:58;-11415.81;;;17.39;100.00
10145;BME280;5113;41.822;23.564;2022-09-29T16:31:14;-11413.84;;;17.32;100.00
10145;BME280;5113;41.822;23.564;2022-09-29T16:34:25;-11414.13;;;17.33;100.00
10145;BME280;5113;41.822;23.564;2022-09-29T16:37:33;-11409.34;;;17.15;100.00
10145;BME280;5113;41.822;23.564;2022-09-29T16:40:43;-11408.78;;;17.13;100.00
10145;BME280;5113;41.822;23.564;2022-09-29T16:43:49;-11401.88;;;16.89;100.00
10145;BME280;5113;41.822;23.564;2022-09-29T16:46:58;-11403.44;;;16.94;100.00
10145;BME280;5113;41.822;23.564;2022-09-29T16:50:12;-11398.06;;;16.75;100.00
10145;BME280;5113;41.822;23.564;2022-09-29T16:53:25;-11404.28;;;16.97;100.00
10145;BME280;5113;41.822;23.564;2022-09-29T16:56:32;-11406.94;;;17.07;100.00
10145;BME280;5113;41.822;23.564;2022-09-29T16:59:40;-11397.66;;;16.73;100.00
10145;BME280;5113;41.822;23.564;2022-09-29T17:02:49;-11393.13;;;16.57;100.00
10145;BME280;5113;41.822;23.564;2022-09-29T17:05:56;-11387.34;;;16.36;100.00
10145;BME280;5113;41.822;23.564;2022-09-29T17:09:16;-11385.66;;;16.30;100.00
10145;BME280;5113;41.822;23.564;2022-09-29T17:12:24;-11381.72;;;16.16;100.00
10145;BME280;5113;41.822;23.564;2022-09-29T17:15:31;-11383.84;;;16.24;100.00
10145;BME280;5113;41.822;23.564;2022-09-29T17:18:41;-11379.31;;;16.07;100.00
10145;BME280;5113;41.822;23.564;2022-09-29T17:21:47;-11385.38;;;16.29;100.00
10145;BME280;5113;41.822;23.564;2022-09-29T17:24:54;-11386.94;;;16.35;100.00
10145;BME280;5113;41.822;23.564;2022-09-29T17:28:01;-11383.41;;;16.22;100.00
10145;BME280;5113;41.822;23.564;2022-09-29T17:31:16;-11390.19;;;16.46;100.00
10145;BME280;5113;41.822;23.564;2022-09-29T17:34:23;-11385.94;;;16.31;100.00
10145;BME280;5113;41.822;23.564;2022-09-29T17:37:32;-11388.19;;;16.39;100.00
10145;BME280;5113;41.822;23.564;2022-09-29T17:40:48;-11389.19;;;16.43;100.00
10145;BME280;5113;41.822;23.564;2022-09-29T17:43:55;-11383.97;;;16.24;100.00
10145;BME280;5113;41.822;23.564;2022-09-29T17:47:01;-11389.34;;;16.43;100.00
10145;BME280;5113;41.822;23.564;2022-09-29T17:50:31;-11385.94;;;16.31;100.00
10145;BME280;5113;41.822;23.564;2022-09-29T17:53:40;-11389.34;;;16.43;100.00
10145;BME280;5113;41.822;23.564;2022-09-29T17:56:48;-11381.44;;;16.15;100.00
10145;BME280;5113;41.822;23.564;2022-09-29T17:59:54;-11380.19;;;16.10;100.00
10145;BME280;5113;41.822;23.564;2022-09-29T18:03:02;-11379.63;;;16.08;100.00
10145;BME280;5113;41.822;23.564;2022-09-29T18:06:15;-11373.28;;;15.85;100.00
10145;BME280;5113;41.822;23.564;2022-09-29T18:09:25;-11369.88;;;15.73;100.00
10145;BME280;5113;41.822;23.564;2022-09-29T18:12:32;-11369.31;;;15.71;100.00
10145;BME280;5113;41.822;23.564;2022-09-29T18:15:38;-11373.56;;;15.87;100.00
10145;BME280;5113;41.822;23.564;2022-09-29T18:18:45;-11371.00;;;15.77;100.00
10145;BME280;5113;41.822;23.564;2022-09-29T18:21:52;-11368.63;;;15.69;100.00
10145;BME280;5113;41.822;23.564;2022-09-29T18:25:01;-11369.59;;;15.72;100.00
10145;BME280;5113;41.822;23.564;2022-09-29T18:28:09;-11377.78;;;16.02;100.00
10145;BME280;5113;41.822;23.564;2022-09-29T18:31:23;-11376.94;;;15.99;100.00
10145;BME280;5113;41.822;23.564;2022-09-29T18:34:30;-11369.88;;;15.73;100.00
10145;BME280;5113;41.822;23.564;2022-09-29T18:37:37;-11361.56;;;15.43;100.00
10145;BME280;5113;41.822;23.564;2022-09-29T18:40:43;-11366.78;;;15.62;100.00
10145;BME280;5113;41.822;23.564;2022-09-29T18:43:52;-11368.75;;;15.69;100.00
10145;BME280;5113;41.822;23.564;2022-09-29T18:47:03;-11361.72;;;15.44;100.00
10145;BME280;5113;41.822;23.564;2022-09-29T18:50:14;-11364.81;;;15.55;100.00
10145;BME280;5113;41.822;23.564;2022-09-29T18:53:23;-11368.91;;;15.70;100.00
10145;BME280;5113;41.822;23.564;2022-09-29T18:56:30;-11366.22;;;15.60;100.00
10145;BME280;5113;41.822;23.564;2022-09-29T18:59:38;-11363.69;;;15.51;100.00
10145;BME280;5113;41.822;23.564;2022-09-29T19:02:45;-11364.53;;;15.54;100.00
10145;BME280;5113;41.822;23.564;2022-09-29T19:05:52;-11363.97;;;15.52;100.00
10145;BME280;5113;41.822;23.564;2022-09-29T19:08:58;-11363.13;;;15.49;100.00
10145;BME280;5113;41.822;23.564;2022-09-29T19:12:05;-11361.72;;;15.44;100.00
10145;BME280;5113;41.822;23.564;2022-09-29T19:15:16;-11361.84;;;15.44;100.00
10145;BME280;5113;41.822;23.564;2022-09-29T19:18:23;-11363.53;;;15.50;100.00
10145;BME280;5113;41.822;23.564;2022-09-29T19:21:30;-11362.28;;;15.46;100.00
10145;BME280;5113;41.822;23.564;2022-09-29T19:24:37;-11365.66;;;15.58;100.00
10145;BME280;5113;41.822;23.564;2022-09-29T19:27:44;-11371.56;;;15.79;100.00
10145;BME280;5113;41.822;23.564;2022-09-29T19:30:52;-11366.22;;;15.60;100.00
10145;BME280;5113;41.822;23.564;2022-09-29T19:33:59;-11367.06;;;15.63;100.00
10145;BME280;5113;41.822;23.564;2022-09-29T19:37:05;-11367.63;;;15.65;100.00
10145;BME280;5113;41.822;23.564;2022-09-29T19:40:21;-11363.25;;;15.49;100.00
10145;BME280;5113;41.822;23.564;2022-09-29T19:43:28;-11361.72;;;15.44;100.00
10145;BME280;5113;41.822;23.564;2022-09-29T19:46:36;-11360.16;;;15.38;100.00